createdAt,value
2019-04-03T00:02:27.636Z,36.68
2019-04-03T00:05:00.304Z,36.68
2019-04-03T00:07:35.165Z,36.60
2019-04-03T00:10:09.543Z,36.60
2019-04-03T00:12:42.041Z,37.02
2019-04-03T00:15:15.301Z,37.34
2019-04-03T00:17:47.751Z,37.67
2019-04-03T00:20:20.371Z,37.67
2019-04-03T00:22:52.757Z,37.40
2019-04-03T00:25:25.323Z,37.40
2019-04-03T00:27:57.751Z,37.39
2019-04-03T00:30:31.728Z,37.11
2019-04-03T00:33:04.115Z,37.24
2019-04-03T00:35:36.615Z,37.48
2019-04-03T00:38:09.650Z,37.52
2019-04-03T00:40:42.256Z,37.76
2019-04-03T00:43:15.531Z,37.90
2019-04-03T00:45:49.325Z,37.86
2019-04-03T00:48:21.627Z,37.79
2019-04-03T00:50:56.286Z,37.79
2019-04-03T00:53:28.555Z,37.89
2019-04-03T00:56:00.842Z,37.93
2019-04-03T00:58:43.289Z,38.04
2019-04-03T01:01:16.196Z,38.29
2019-04-03T01:03:50.306Z,38.29
2019-04-03T01:06:22.249Z,38.15
2019-04-03T01:08:54.523Z,38.09
2019-04-03T01:11:30.144Z,38.36
2019-04-03T01:14:02.304Z,38.76
2019-04-03T01:16:34.663Z,39.29
2019-04-03T01:19:07.297Z,39.29
2019-04-03T01:21:39.873Z,39.16
2019-04-03T01:24:12.397Z,38.95
2019-04-03T01:26:44.056Z,39.77
2019-04-03T01:29:16.333Z,39.77
2019-04-03T01:31:48.090Z,39.74
2019-04-03T01:34:20.420Z,39.74
2019-04-03T01:36:52.793Z,40.47
2019-04-03T01:39:25.293Z,40.10
2019-04-03T01:41:56.931Z,41.10
2019-04-03T01:44:29.422Z,41.10
2019-04-03T01:47:01.780Z,40.93
2019-04-03T01:49:34.374Z,41.35
2019-04-03T01:52:07.104Z,42.75
2019-04-03T01:54:40.468Z,42.75
2019-04-03T01:57:12.905Z,43.35
2019-04-03T01:59:46.718Z,43.16
2019-04-03T02:02:20.641Z,43.62
2019-04-03T02:04:54.039Z,43.95
2019-04-03T02:07:26.483Z,44.73
2019-04-03T02:09:58.762Z,44.93
2019-04-03T02:12:31.292Z,46.19
2019-04-03T02:15:03.697Z,48.91
2019-04-03T02:17:36.455Z,48.91
2019-04-03T02:20:11.400Z,49.91
2019-04-03T02:22:43.888Z,52.34
2019-04-03T02:25:16.372Z,52.34
2019-04-03T02:27:48.536Z,55.92
2019-04-03T02:30:20.724Z,57.13
2019-04-03T02:32:56.625Z,57.10
2019-04-03T02:35:27.512Z,56.82
2019-04-03T02:37:59.776Z,59.01
2019-04-03T02:40:33.125Z,59.52
2019-04-03T02:43:05.845Z,60.50
2019-04-03T02:45:38.466Z,60.50
2019-04-03T02:48:10.901Z,60.45
2019-04-03T02:50:46.546Z,64.90
2019-04-03T02:53:18.046Z,69.26
2019-04-03T02:55:50.527Z,69.26
2019-04-03T02:58:23.446Z,71.68
2019-04-03T03:00:56.008Z,70.79
2019-04-03T03:03:29.034Z,74.01
2019-04-03T03:06:01.824Z,70.16
2019-04-03T03:08:35.319Z,75.31
2019-04-03T03:11:10.004Z,77.31
2019-04-03T03:13:42.842Z,77.31
2019-04-03T03:16:17.967Z,74.67
2019-04-03T03:18:49.287Z,75.61
2019-04-03T03:21:23.315Z,71.80
2019-04-03T03:23:57.256Z,76.45
2019-04-03T03:26:31.300Z,73.50
2019-04-03T03:29:16.991Z,78.32
2019-04-03T03:32:03.038Z,78.32
2019-04-03T03:34:16.842Z,78.40
2019-04-03T03:36:50.848Z,75.77
2019-04-03T03:39:23.042Z,76.20
2019-04-03T03:41:58.607Z,77.52
2019-04-03T03:44:31.880Z,78.25
2019-04-03T03:47:27.666Z,80.53
2019-04-03T03:50:00.524Z,79.73
2019-04-03T03:52:38.224Z,81.12
2019-04-03T03:55:13.850Z,79.77
2019-04-03T04:09:38.040Z,76.63
2019-04-03T04:12:11.345Z,76.63
2019-04-03T04:14:46.626Z,73.81
2019-04-03T04:17:19.668Z,73.81
2019-04-03T04:19:52.679Z,74.41
2019-04-03T04:22:27.848Z,74.10
2019-04-03T04:25:04.054Z,79.51
2019-04-03T04:27:38.629Z,79.51
2019-04-03T04:30:12.919Z,82.35
2019-04-03T04:32:46.512Z,82.84
2019-04-03T04:35:21.456Z,83.17
2019-04-03T04:37:55.273Z,84.00
2019-04-03T04:40:29.007Z,83.53
2019-04-03T04:43:03.622Z,82.88
2019-04-03T04:45:40.687Z,82.88
2019-04-03T04:48:15.833Z,79.65
2019-04-03T04:50:47.421Z,80.43
2019-04-03T04:53:20.082Z,84.01
2019-04-03T04:55:52.760Z,83.31
2019-04-03T04:58:25.331Z,83.31
2019-04-03T05:00:59.512Z,76.15
2019-04-03T05:03:31.911Z,76.15
2019-04-03T05:06:04.325Z,77.96
2019-04-03T05:08:36.714Z,82.11
2019-04-03T05:11:09.322Z,82.11
2019-04-03T05:13:41.856Z,81.70
2019-04-03T05:16:14.609Z,81.70
2019-04-03T05:18:47.314Z,80.69
2019-04-03T05:21:21.743Z,79.12
2019-04-03T05:23:55.945Z,79.12
2019-04-03T05:26:28.760Z,81.04
2019-04-03T05:29:01.314Z,80.84
2019-04-03T05:31:34.057Z,77.91
2019-04-03T05:34:16.973Z,77.91
2019-04-03T05:36:51.994Z,79.25
2019-04-03T05:39:24.738Z,79.58
2019-04-03T05:41:59.524Z,79.77
2019-04-03T05:44:33.465Z,77.12
2019-04-03T05:47:08.135Z,82.79
2019-04-03T05:49:42.281Z,81.54
2019-04-03T05:52:14.897Z,80.93
2019-04-03T05:54:49.837Z,80.93
2019-04-03T05:57:22.394Z,78.42
2019-04-03T06:00:00.650Z,79.12
2019-04-03T06:02:30.542Z,80.99
2019-04-03T06:05:05.970Z,79.90
2019-04-03T06:07:37.562Z,78.80
2019-04-03T06:10:11.733Z,79.01
2019-04-03T06:12:46.333Z,80.83
2019-04-03T06:15:21.813Z,80.30
2019-04-03T06:17:55.090Z,80.45
2019-04-03T06:20:28.167Z,80.45
2019-04-03T06:23:02.564Z,79.33
2019-04-03T06:25:35.292Z,78.57
2019-04-03T06:28:07.627Z,79.07
2019-04-03T06:30:41.983Z,79.07
2019-04-03T06:33:14.983Z,77.92
2019-04-03T06:35:47.992Z,77.23
2019-04-03T06:38:20.365Z,77.23
2019-04-03T06:40:52.392Z,76.43
2019-04-03T06:43:24.312Z,76.53
2019-04-03T06:45:59.593Z,72.46
2019-04-03T06:48:32.309Z,72.46
2019-04-03T06:51:04.280Z,73.73
2019-04-03T06:53:36.245Z,70.94
2019-04-03T06:56:10.448Z,69.58
2019-04-03T06:58:44.409Z,70.44
2019-04-03T07:01:20.914Z,70.87
2019-04-03T07:03:55.041Z,70.84
2019-04-03T07:06:27.698Z,69.20
2019-04-03T07:09:00.499Z,69.30
2019-04-03T07:11:34.625Z,68.39
2019-04-03T07:14:10.721Z,69.76
2019-04-03T07:16:46.558Z,68.37
2019-04-03T07:19:19.319Z,69.23
2019-04-03T07:21:52.999Z,67.46
2019-04-03T07:28:09.065Z,65.70
2019-04-03T07:30:44.844Z,65.91
2019-04-03T07:33:18.600Z,65.91
2019-04-03T07:35:51.452Z,65.19
2019-04-03T07:38:23.835Z,65.70
2019-04-03T07:40:56.367Z,63.07
2019-04-03T07:43:28.719Z,64.02
2019-04-03T07:46:01.685Z,64.02
2019-04-03T07:48:37.154Z,65.16
2019-04-03T07:51:12.498Z,64.63
2019-04-03T07:53:43.596Z,62.70
2019-04-03T07:56:16.593Z,62.70
2019-04-03T07:58:48.248Z,61.97
2019-04-03T08:01:23.443Z,63.05
2019-04-03T08:03:55.113Z,64.39
2019-04-03T08:06:27.911Z,63.81
2019-04-03T08:09:08.433Z,62.08
2019-04-03T08:11:37.239Z,62.00
2019-04-03T08:14:09.975Z,60.72
2019-04-03T08:16:43.225Z,60.42
2019-04-03T08:19:15.671Z,57.63
2019-04-03T08:21:50.604Z,57.63
2019-04-03T08:24:23.543Z,56.98
2019-04-03T08:26:56.266Z,55.67
2019-04-03T08:29:28.598Z,51.61
2019-04-03T08:32:02.740Z,51.61
2019-04-03T08:34:35.317Z,53.26
2019-04-03T08:37:10.379Z,49.82
2019-04-03T08:39:43.988Z,49.82
2019-04-03T08:42:16.641Z,51.24
2019-04-03T08:44:49.320Z,50.32
2019-04-03T08:47:21.751Z,51.81
2019-04-03T08:49:56.400Z,51.81
2019-04-03T08:52:28.448Z,52.81
2019-04-03T08:55:00.971Z,53.69
2019-04-03T08:57:33.363Z,53.54
2019-04-03T09:00:09.476Z,53.36
2019-04-03T09:02:44.104Z,52.00
2019-04-03T09:05:19.704Z,52.03
2019-04-03T09:07:55.358Z,52.03
2019-04-03T09:10:27.512Z,52.28
2019-04-03T09:12:59.874Z,52.38
2019-04-03T09:15:32.454Z,52.02
2019-04-03T09:18:06.426Z,52.07
2019-04-03T09:20:43.466Z,52.04
2019-04-03T09:23:17.318Z,51.31
2019-04-03T09:25:49.869Z,50.77
2019-04-03T09:28:22.811Z,50.77
2019-04-03T09:30:55.503Z,50.84
2019-04-03T09:33:29.830Z,50.15
2019-04-03T09:36:04.377Z,48.18
2019-04-03T09:38:36.507Z,47.49
2019-04-03T09:41:09.357Z,47.28
2019-04-03T09:43:43.505Z,46.23
2019-04-03T09:46:15.775Z,46.23
2019-04-03T09:48:48.299Z,47.42
2019-04-03T09:51:22.780Z,47.32
2019-04-03T09:53:57.071Z,46.22
2019-04-03T09:56:28.924Z,46.22
2019-04-03T09:59:06.732Z,45.04
2019-04-03T10:01:41.606Z,44.29
2019-04-03T10:04:14.376Z,44.29
2019-04-03T10:06:47.464Z,42.43
2019-04-03T10:09:20.071Z,42.66
2019-04-03T10:11:53.031Z,43.90
2019-04-03T10:14:25.766Z,42.36
2019-04-03T10:16:59.000Z,42.15
2019-04-03T10:19:33.442Z,42.15
2019-04-03T10:22:06.777Z,42.35
2019-04-03T10:24:39.290Z,43.66
2019-04-03T10:27:12.666Z,42.84
2019-04-03T10:29:45.494Z,42.84
2019-04-03T10:32:18.290Z,42.60
2019-04-03T10:34:50.370Z,43.78
2019-04-03T10:37:22.275Z,44.61
2019-04-03T10:39:54.131Z,43.87
2019-04-03T10:42:26.014Z,42.64
2019-04-03T10:44:58.331Z,41.53
2019-04-03T10:47:41.343Z,40.62
2019-04-03T10:50:09.341Z,39.17
2019-04-03T10:52:44.048Z,39.63
2019-04-03T10:55:17.079Z,40.14
2019-04-03T10:57:50.400Z,39.61
2019-04-03T11:00:24.880Z,39.45
2019-04-03T11:02:57.476Z,40.62
2019-04-03T11:05:30.356Z,40.06
2019-04-03T11:08:04.291Z,39.76
2019-04-03T11:10:38.618Z,40.04
2019-04-03T11:13:11.315Z,40.04
2019-04-03T11:15:46.003Z,38.61
2019-04-03T11:18:18.871Z,38.96
2019-04-03T11:20:52.466Z,38.70
2019-04-03T11:23:38.651Z,39.02
2019-04-03T11:26:00.761Z,38.36
2019-04-03T11:28:36.987Z,36.99
2019-04-03T11:31:07.616Z,38.79
2019-04-03T11:33:40.452Z,40.45
2019-04-03T11:38:53.578Z,38.96
2019-04-03T11:41:26.012Z,37.91
2019-04-03T11:43:58.547Z,37.95
2019-04-03T11:47:20.020Z,38.10
2019-04-03T11:49:53.235Z,37.23
2019-04-03T11:52:25.737Z,37.23
2019-04-03T11:54:58.316Z,36.74
2019-04-03T11:57:30.772Z,36.58
2019-04-03T12:00:05.326Z,36.58
2019-04-03T12:02:39.102Z,34.21
2019-04-03T12:05:15.371Z,33.60
2019-04-03T12:11:14.262Z,31.45
2019-04-03T12:13:46.749Z,30.03
2019-04-03T12:16:20.589Z,28.83
2019-04-03T12:18:53.842Z,29.74
2019-04-03T12:21:32.194Z,29.05
2019-04-03T12:24:05.293Z,26.93
2019-04-03T12:26:42.985Z,25.10
2019-04-03T12:29:14.062Z,25.10
2019-04-03T12:31:48.298Z,24.71
2019-04-03T12:34:24.049Z,25.27
2019-04-03T12:36:57.256Z,25.27
2019-04-03T12:39:29.753Z,25.46
2019-04-03T12:42:02.561Z,24.06
2019-04-03T12:44:36.830Z,24.48
2019-04-03T12:47:12.373Z,26.66
2019-04-03T12:49:45.304Z,27.08
2019-04-03T12:52:19.379Z,30.80
2019-04-03T12:54:53.756Z,30.86
2019-04-03T12:57:29.141Z,30.86
2019-04-03T13:00:04.697Z,41.42
2019-04-03T13:02:37.418Z,41.42
2019-04-03T13:05:13.478Z,41.14
2019-04-03T13:07:47.472Z,39.93
2019-04-03T13:10:23.547Z,38.57
2019-04-03T13:12:57.056Z,39.46
2019-04-03T13:15:29.661Z,38.16
2019-04-03T13:18:05.527Z,37.90
2019-04-03T13:20:38.690Z,38.55
2019-04-03T13:23:13.314Z,38.48
2019-04-03T13:25:54.594Z,33.60
2019-04-03T13:28:29.451Z,34.09
2019-04-03T13:31:06.620Z,32.59
2019-04-03T13:33:39.796Z,36.38
2019-04-03T13:36:13.754Z,38.21
2019-04-03T14:08:19.777Z,42.44
2019-04-03T14:10:53.332Z,43.98
2019-04-03T14:13:26.269Z,44.15
2019-04-03T14:15:59.085Z,39.20
2019-04-03T14:18:31.558Z,39.20
2019-04-03T14:21:04.105Z,38.36
2019-04-03T14:23:39.768Z,41.85
2019-04-03T14:26:13.828Z,41.46
2019-04-03T14:28:46.356Z,38.75
2019-04-03T14:31:19.296Z,42.25
2019-04-03T14:33:51.241Z,45.92
2019-04-03T14:40:57.349Z,43.97
2019-04-03T14:44:09.929Z,43.97
2019-04-03T14:46:43.526Z,44.38
2019-04-03T14:49:45.298Z,43.93
2019-04-03T14:56:09.952Z,43.97
2019-04-03T15:06:16.402Z,49.37
2019-04-03T15:08:49.160Z,51.31
2019-04-03T15:11:22.047Z,51.31
2019-04-03T15:13:54.500Z,57.45
2019-04-03T15:16:27.629Z,58.62
2019-04-03T15:19:02.604Z,59.16
2019-04-03T15:21:35.514Z,58.66
2019-04-03T15:24:08.943Z,61.75
2019-04-03T15:26:45.286Z,65.20
2019-04-03T15:29:18.291Z,67.69
2019-04-03T15:31:51.535Z,63.03
2019-04-03T15:34:27.740Z,63.03
2019-04-03T15:37:00.704Z,63.35
2019-04-03T15:39:33.512Z,61.42
2019-04-03T15:42:06.686Z,61.50
2019-04-03T15:44:42.618Z,60.05
2019-04-03T15:47:28.258Z,61.20
2019-04-03T15:49:52.701Z,61.54
2019-04-03T15:52:25.718Z,61.12
2019-04-03T15:54:58.836Z,60.07
2019-04-03T15:57:32.058Z,63.08
2019-04-03T16:00:12.893Z,63.18
2019-04-03T16:02:46.681Z,62.72
2019-04-03T16:05:20.141Z,63.18
2019-04-03T16:07:52.831Z,64.81
2019-04-03T16:10:25.827Z,64.81
2019-04-03T16:13:09.055Z,68.04
2019-04-03T16:15:42.051Z,79.44
2019-04-03T16:18:14.714Z,90.33
2019-04-03T16:20:50.092Z,93.25
2019-04-03T16:23:23.649Z,93.25
2019-04-03T16:25:56.511Z,93.97
2019-04-03T16:28:29.679Z,94.41
2019-04-03T16:31:03.895Z,94.72
2019-04-03T16:33:37.017Z,95.07
2019-04-03T16:36:11.310Z,95.23
2019-04-03T16:38:46.928Z,95.57
2019-04-03T16:41:19.871Z,95.69
2019-04-03T16:43:52.894Z,95.69
2019-04-03T16:46:27.670Z,95.91
2019-04-03T16:49:00.328Z,96.07
2019-04-03T16:51:33.785Z,96.33
2019-04-03T16:54:10.282Z,96.33
2019-04-03T16:56:41.628Z,96.39
2019-04-03T16:59:15.497Z,96.50
2019-04-03T17:01:49.432Z,96.53
2019-04-03T17:04:27.195Z,96.64
2019-04-03T17:06:57.609Z,96.74
2019-04-03T17:09:32.618Z,96.79
2019-04-03T17:12:04.593Z,96.87
2019-04-03T17:14:37.730Z,96.93
2019-04-03T17:17:13.646Z,96.98
2019-04-03T17:19:44.812Z,97.05
2019-04-03T17:22:19.037Z,97.10
2019-04-03T17:24:54.023Z,97.15
2019-04-03T17:27:25.681Z,97.21
2019-04-03T17:29:58.645Z,97.24
2019-04-03T17:32:31.732Z,97.32
2019-04-03T17:35:06.767Z,97.36
2019-04-03T17:37:39.361Z,97.41
2019-04-03T17:40:13.475Z,97.45
2019-04-03T17:42:46.092Z,97.47
2019-04-03T17:45:18.335Z,97.51
2019-04-03T17:47:53.912Z,97.50
2019-04-03T17:50:29.405Z,97.50
2019-04-03T17:53:01.766Z,97.66
2019-04-03T17:55:34.568Z,97.65
2019-04-03T17:58:07.606Z,97.67
2019-04-03T18:00:40.534Z,97.72
2019-04-03T18:03:13.446Z,97.76
2019-04-03T18:05:45.830Z,97.80
2019-04-03T18:08:19.629Z,97.82
2019-04-03T18:10:52.306Z,97.84
2019-04-03T18:13:25.044Z,97.91
2019-04-03T18:15:58.908Z,97.91
2019-04-03T18:18:33.354Z,97.91
2019-04-03T18:21:06.364Z,97.96
2019-04-03T18:23:40.348Z,97.99
2019-04-03T18:26:13.082Z,98.02
2019-04-03T18:28:45.716Z,98.05
2019-04-03T18:31:21.310Z,98.07
2019-04-03T18:33:56.418Z,98.05
2019-04-03T18:36:31.200Z,98.25
2019-04-03T18:39:05.048Z,98.25
2019-04-03T18:41:37.877Z,98.33
2019-04-03T18:44:21.535Z,98.33
2019-04-03T18:46:44.857Z,98.14
2019-04-03T18:49:17.571Z,98.14
2019-04-03T18:51:50.298Z,98.23
2019-04-03T18:54:23.286Z,98.26
2019-04-03T18:56:55.799Z,98.25
2019-04-03T18:59:28.366Z,98.25
2019-04-03T19:02:01.977Z,98.20
2019-04-03T19:04:40.829Z,98.20
2019-04-03T19:07:15.271Z,98.36
2019-04-03T19:09:47.818Z,98.38
2019-04-03T19:12:20.360Z,98.40
2019-04-03T19:14:53.019Z,98.43
2019-04-03T19:17:25.528Z,98.42
2019-04-03T19:20:09.687Z,98.44
2019-04-03T19:22:32.796Z,98.49
2019-04-03T19:25:07.501Z,98.51
2019-04-03T19:27:40.306Z,98.53
2019-04-03T19:30:13.413Z,98.53
2019-04-03T19:32:46.080Z,98.53
2019-04-03T19:35:20.313Z,98.55
2019-04-03T19:37:52.758Z,98.58
2019-04-03T19:40:25.397Z,98.58
2019-04-03T19:42:57.779Z,98.60
2019-04-03T19:45:33.272Z,98.59
2019-04-03T19:48:06.049Z,98.62
2019-04-03T19:50:38.490Z,98.62
2019-04-03T19:53:13.195Z,98.65
2019-04-03T19:55:45.387Z,98.64
2019-04-03T19:58:18.347Z,98.66
2019-04-03T20:00:51.635Z,98.54
2019-04-03T20:03:24.645Z,98.54
2019-04-03T20:05:58.824Z,98.71
2019-04-03T20:08:31.683Z,98.69
2019-04-03T20:11:05.089Z,98.70
2019-04-03T20:13:39.873Z,98.71
2019-04-03T20:16:12.998Z,98.71
2019-04-03T20:18:45.806Z,98.71
2019-04-03T20:21:18.322Z,98.69
2019-04-03T20:23:50.881Z,98.71
2019-04-03T20:26:24.033Z,98.71
2019-04-03T20:28:58.562Z,98.72
2019-04-03T20:31:36.309Z,98.67
2019-04-03T20:34:08.867Z,98.69
2019-04-03T20:36:41.471Z,98.75
2019-04-03T20:39:17.470Z,98.74
2019-04-03T20:41:50.324Z,98.74
2019-04-03T20:44:22.740Z,98.75
2019-04-03T20:46:56.563Z,98.75
2019-04-03T20:49:28.878Z,98.73
2019-04-03T20:52:01.329Z,98.70
2019-04-03T20:54:33.745Z,98.75
2019-04-03T20:57:13.822Z,98.75
2019-04-03T20:59:58.655Z,98.75
2019-04-03T21:02:21.371Z,98.72
2019-04-03T21:04:53.911Z,98.71
2019-04-03T21:07:26.324Z,98.72
2019-04-03T21:10:00.519Z,98.63
2019-04-03T21:12:35.832Z,98.63
2019-04-03T21:15:14.178Z,98.55
2019-04-03T21:17:51.377Z,98.41
2019-04-03T21:20:24.766Z,97.77
2019-04-03T21:22:58.745Z,97.77
2019-04-03T21:25:31.307Z,97.08
2019-04-03T21:28:03.870Z,96.12
2019-04-03T21:30:36.431Z,95.00
2019-04-03T21:33:08.825Z,93.75
2019-04-03T21:35:42.391Z,92.58
2019-04-03T21:38:20.015Z,90.86
2019-04-03T21:40:55.765Z,90.86
2019-04-03T21:43:29.802Z,89.52
2019-04-03T21:46:02.305Z,84.37
2019-04-03T21:48:34.866Z,86.66
2019-04-03T21:51:07.748Z,88.78
2019-04-03T21:53:44.589Z,85.50
2019-04-03T21:56:31.007Z,85.50
2019-04-03T21:59:05.823Z,86.50
2019-04-03T22:01:45.420Z,84.88
2019-04-03T22:04:22.845Z,84.25
2019-04-03T22:07:01.866Z,85.81
2019-04-03T22:09:34.749Z,83.30
2019-04-03T22:12:07.668Z,83.81
2019-04-03T22:14:43.482Z,82.47
2019-04-03T22:17:23.751Z,80.66
2019-04-03T22:19:59.386Z,82.02
2019-04-03T22:22:33.836Z,82.18
2019-04-03T22:25:09.021Z,83.09
2019-04-03T22:27:42.853Z,79.10
2019-04-03T22:30:16.173Z,78.61
2019-04-03T22:32:49.753Z,80.70
2019-04-03T22:35:39.404Z,78.05
2019-04-03T22:38:14.805Z,81.56
2019-04-03T22:40:53.557Z,82.00
2019-04-03T22:43:21.789Z,82.06
2019-04-03T22:45:54.390Z,82.04
2019-04-03T22:48:28.425Z,79.86
2019-04-03T22:51:00.873Z,78.32
2019-04-03T22:53:33.398Z,80.61
2019-04-03T22:56:05.876Z,77.28
2019-04-03T22:58:41.031Z,77.66
2019-04-03T23:01:13.700Z,77.67
2019-04-03T23:03:49.552Z,77.41
2019-04-03T23:06:22.294Z,77.85
2019-04-03T23:08:59.354Z,79.71
2019-04-03T23:11:32.023Z,80.18
2019-04-03T23:14:08.002Z,80.18
2019-04-03T23:16:42.683Z,80.25
2019-04-03T23:19:21.684Z,79.73
2019-04-03T23:21:55.571Z,78.73
2019-04-03T23:24:32.018Z,80.03
2019-04-03T23:27:04.431Z,79.43
2019-04-03T23:29:37.866Z,80.37
2019-04-03T23:32:15.278Z,79.95
2019-04-03T23:34:53.618Z,80.47
2019-04-03T23:37:26.292Z,80.82
2019-04-03T23:40:00.751Z,81.13
2019-04-03T23:42:32.256Z,81.24
2019-04-03T23:45:07.041Z,81.16
2019-04-03T23:47:45.139Z,82.67
2019-04-03T23:50:13.691Z,82.73
2019-04-03T23:52:46.298Z,81.37
2019-04-03T23:55:21.009Z,81.90
2019-04-03T23:57:55.306Z,82.29
